Time;durP1;ratioP1;P1;durP2;ratioP2;P2;SDS_P1;SDS_P2;PMS_P1;PMS_P2;Temp;Humidity;BMP_temperature;BMP_pressure;BME280_temperature;BME280_humidity;BME280_pressure;Samples;Min_cycle;Max_cycle;Signal;HPM_P1;HPM_P2
2023/09/04 00:01:05;;;;;;;;;;;;;;;24.70;44.77;99424.53;5092772;28;20362;-78
2023/09/04 00:03:30;;;;;;;;;;;;;;;24.70;44.10;99418.31;5092595;28;19912;-78
2023/09/04 00:05:55;;;;;;;;;;;;;;;24.70;43.25;99421.84;5092449;28;20487;-78
2023/09/04 00:08:21;;;;;;;;;;;;;;;24.63;43.95;99423.19;5092544;28;19912;-76
2023/09/04 00:10:46;;;;;;;;;;;;;;;24.60;44.51;99418.34;5092651;28;20355;-78
2023/09/04 00:13:12;;;;;;;;;;;;;;;24.58;44.35;99415.91;5092441;28;19919;-77
2023/09/04 00:15:38;;;;;;;;;;;;;;;24.60;43.81;99412.94;5092351;28;19912;-77
2023/09/04 00:18:03;;;;;;;;;;;;;;;24.60;43.46;99413.75;5092309;28;20304;-78
2023/09/04 00:20:29;;;;;;;;;;;;;;;24.61;43.45;99420.78;5092493;28;19966;-78
2023/09/04 00:22:55;;;;;;;;;;;;;;;24.61;43.39;99415.38;5074023;28;19916;-78
2023/09/04 00:25:21;;;;;;;;;;;;;;;24.63;43.18;99412.41;5092183;28;20389;-77
2023/09/04 00:27:46;;;;;;;;;;;;;;;24.64;44.00;99416.72;5074487;28;19934;-79
2023/09/04 00:30:11;;;;;;;;;;;;;;;24.59;43.58;99414.84;5074137;28;19919;-78
2023/09/04 00:32:38;;;;;;;;;;;;;;;24.59;43.63;99404.03;5092172;28;19912;-78
2023/09/04 00:35:04;;;;;;;;;;;;;;;24.58;44.08;99415.13;5091979;28;19998;-78
2023/09/04 00:37:29;;;;;;;;;;;;;;;24.47;45.79;99410.78;5073979;28;19951;-78
2023/09/04 00:39:55;;;;;;;;;;;;;;;24.41;44.80;99404.59;5092136;28;19912;-78
2023/09/04 00:42:20;;;;;;;;;;;;;;;24.38;45.11;99402.44;5092319;28;19912;-79
2023/09/04 00:44:49;;;;;;;;;;;;;;;24.30;46.49;99403.78;5092035;28;20362;-77
2023/09/04 00:47:17;;;;;;;;;;;;;;;24.29;45.03;99396.78;5092161;28;20538;-78
2023/09/04 00:49:42;;;;;;;;;;;;;;;24.33;45.27;99397.03;5091884;28;20377;-78
2023/09/04 00:52:08;;;;;;;;;;;;;;;24.33;46.74;99399.72;5073832;28;19923;-78
2023/09/04 00:54:34;;;;;;;;;;;;;;;24.31;46.46;99402.72;5073740;28;19969;-78
2023/09/04 00:57:02;;;;;;;;;;;;;;;24.23;45.13;99402.41;5073695;28;19958;-78
2023/09/04 00:59:28;;;;;;;;;;;;;;;24.18;45.32;99395.13;5092052;28;20457;-78
2023/09/04 01:01:54;;;;;;;;;;;;;;;24.11;47.49;99396.47;5091701;28;19947;-78
2023/09/04 01:04:20;;;;;;;;;;;;;;;24.08;47.60;99398.63;5091813;28;19912;-78
2023/09/04 01:06:45;;;;;;;;;;;;;;;24.03;48.44;99401.34;5091680;28;20308;-78
2023/09/04 01:09:10;;;;;;;;;;;;;;;23.97;46.84;99399.72;5091548;28;19973;-78
2023/09/04 01:11:35;;;;;;;;;;;;;;;23.91;46.55;99398.09;5091700;28;19916;-78
2023/09/04 01:14:05;;;;;;;;;;;;;;;23.88;46.80;99395.13;5091623;28;19912;-78
2023/09/04 01:16:30;;;;;;;;;;;;;;;23.86;48.18;99387.31;5091634;28;20316;-78
2023/09/04 01:18:55;;;;;;;;;;;;;;;23.84;48.84;99394.03;5073652;28;19916;-78
2023/09/04 01:21:21;;;;;;;;;;;;;;;23.84;46.79;99386.78;5091744;28;19946;-78
2023/09/04 01:23:46;;;;;;;;;;;;;;;23.82;47.75;99390.81;5091605;28;19912;-78
2023/09/04 01:26:23;;;;;;;;;;;;;;;23.77;47.05;99388.88;5073491;28;19916;-78
2023/09/04 01:29:07;;;;;;;;;;;;;;;23.78;47.15;99368.94;5073770;28;19923;-78
2023/09/04 01:31:35;;;;;;;;;;;;;;;23.75;46.54;99377.56;5091697;28;19916;-77
2023/09/04 01:34:09;;;;;;;;;;;;;;;23.71;48.92;99376.47;5091486;28;19916;-78
2023/09/04 01:36:35;;;;;;;;;;;;;;;23.76;48.08;99379.19;5091486;28;19912;-78
2023/09/04 01:39:00;;;;;;;;;;;;;;;23.74;47.27;99378.66;5073377;28;20308;-77
2023/09/04 01:41:25;;;;;;;;;;;;;;;23.70;48.28;99385.66;5091437;28;19919;-79
2023/09/04 01:43:51;;;;;;;;;;;;;;;23.71;47.03;99393.47;5091470;28;19919;-78
2023/09/04 01:46:16;;;;;;;;;;;;;;;23.74;46.70;99386.72;5091438;28;19917;-77
2023/09/04 01:48:41;;;;;;;;;;;;;;;23.77;48.16;99383.50;5091460;28;19912;-78
2023/09/04 01:51:07;;;;;;;;;;;;;;;23.79;48.56;99384.06;5091636;28;20309;-77
2023/09/04 01:53:32;;;;;;;;;;;;;;;23.80;48.48;99384.88;5091527;28;19948;-78
2023/09/04 01:55:58;;;;;;;;;;;;;;;23.68;47.49;99383.22;5091735;28;19962;-77
2023/09/04 01:58:24;;;;;;;;;;;;;;;23.74;48.42;99375.94;5073166;28;19965;-78
2023/09/04 02:00:49;;;;;;;;;;;;;;;23.74;48.26;99376.75;5091038;28;19920;-78
2023/09/04 02:03:15;;;;;;;;;;;;;;;23.73;47.59;99385.91;5091478;28;20282;-78
2023/09/04 02:05:40;;;;;;;;;;;;;;;23.74;46.78;99386.72;5073079;28;19916;-78
2023/09/04 02:08:07;;;;;;;;;;;;;;;23.75;47.03;99388.34;5091481;28;19919;-78
2023/09/04 02:10:38;;;;;;;;;;;;;;;23.76;48.82;99390.78;5094669;28;19971;-77
2023/09/04 02:13:03;;;;;;;;;;;;;;;23.79;46.69;99394.84;5095011;28;19911;-78
2023/09/04 02:15:29;;;;;;;;;;;;;;;23.80;47.34;99385.69;5094765;28;20392;-78
2023/09/04 02:17:54;;;;;;;;;;;;;;;23.80;47.40;99388.38;5094730;28;19912;-78
2023/09/04 02:20:19;;;;;;;;;;;;;;;23.75;47.26;99386.47;5095060;28;20373;-77
2023/09/04 02:22:45;;;;;;;;;;;;;;;23.71;48.35;99387.25;5097370;28;19912;-78
2023/09/04 02:25:10;;;;;;;;;;;;;;;23.66;48.60;99384.56;5085089;28;20364;-77
2023/09/04 02:27:35;;;;;;;;;;;;;;;23.67;47.78;99384.28;5097830;28;19912;-76
2023/09/04 02:30:03;;;;;;;;;;;;;;;23.62;47.26;99383.47;5076382;28;19912;-77
2023/09/04 02:32:28;;;;;;;;;;;;;;;23.62;49.02;99375.41;5076440;28;20319;-78
2023/09/04 02:34:54;;;;;;;;;;;;;;;23.61;48.46;99382.66;5094506;28;19912;-76
2023/09/04 02:37:19;;;;;;;;;;;;;;;23.61;48.76;99376.47;5094471;28;19912;-77
2023/09/04 02:39:44;;;;;;;;;;;;;;;23.57;48.32;99381.59;5094368;28;19912;-78
2023/09/04 02:42:10;;;;;;;;;;;;;;;23.56;49.95;99365.69;5094670;28;19912;-77
2023/09/04 02:44:35;;;;;;;;;;;;;;;23.55;48.69;99367.56;5094278;28;19934;-77
2023/09/04 02:47:00;;;;;;;;;;;;;;;23.56;47.61;99371.06;5094290;28;19920;-77
2023/09/04 02:49:25;;;;;;;;;;;;;;;23.55;48.22;99374.84;5094116;28;19912;-79
2023/09/04 02:51:50;;;;;;;;;;;;;;;23.43;50.20;99375.06;5094043;28;20304;-77
2023/09/04 02:54:16;;;;;;;;;;;;;;;23.44;49.40;99379.38;5093967;28;19918;-78
2023/09/04 02:56:41;;;;;;;;;;;;;;;23.48;48.82;99380.47;5093962;28;19919;-78
2023/09/04 02:59:06;;;;;;;;;;;;;;;23.54;48.93;99376.69;5075873;28;19951;-78
2023/09/04 03:01:34;;;;;;;;;;;;;;;23.59;48.09;99371.34;5093854;28;19927;-77
2023/09/04 03:03:59;;;;;;;;;;;;;;;23.54;47.70;99363.22;5075761;28;19920;-77
2023/09/04 03:06:24;;;;;;;;;;;;;;;23.50;48.41;99355.94;5093887;28;19916;-76
2023/09/04 03:08:50;;;;;;;;;;;;;;;23.50;48.99;99356.75;5093667;28;20011;-78
2023/09/04 03:11:15;;;;;;;;;;;;;;;23.50;48.50;99355.94;5093648;28;19919;-78
2023/09/04 03:13:41;;;;;;;;;;;;;;;23.44;49.36;99360.50;5093525;28;19934;-78
2023/09/04 03:16:06;;;;;;;;;;;;;;;23.41;50.00;99359.16;5093743;28;20002;-79
2023/09/04 03:18:34;;;;;;;;;;;;;;;23.39;49.89;99353.22;5093519;28;19912;-77
2023/09/04 03:21:02;;;;;;;;;;;;;;;23.43;49.94;99351.63;5092101;28;20438;-77
2023/09/04 03:23:28;;;;;;;;;;;;;;;23.49;48.73;99346.25;5093785;28;19919;-77
2023/09/04 03:25:53;;;;;;;;;;;;;;;23.53;49.62;99344.63;5093476;28;19916;-79
2023/09/04 03:28:18;;;;;;;;;;;;;;;23.57;49.50;99351.13;5093330;28;19912;-78
2023/09/04 03:30:43;;;;;;;;;;;;;;;23.57;50.11;99349.25;5093231;28;19919;-78
2023/09/04 03:33:09;;;;;;;;;;;;;;;23.56;49.23;99347.63;5093356;28;19965;-78
2023/09/04 03:35:34;;;;;;;;;;;;;;;23.60;49.67;99347.91;5093268;28;19916;-78
2023/09/04 03:37:59;;;;;;;;;;;;;;;23.58;49.86;99339.28;5092985;28;19908;-78
2023/09/04 03:40:25;;;;;;;;;;;;;;;23.56;49.44;99349.50;5092995;28;19912;-78
2023/09/04 03:42:51;;;;;;;;;;;;;;;23.58;49.95;99356.25;5093150;28;19916;-77
2023/09/04 03:45:17;;;;;;;;;;;;;;;23.59;49.79;99352.47;5093085;28;19923;-77
2023/09/04 03:47:43;;;;;;;;;;;;;;;23.50;48.54;99350.53;5093201;28;19919;-76
2023/09/04 03:50:10;;;;;;;;;;;;;;;23.42;49.46;99355.38;5093228;28;20462;-79
2023/09/04 03:52:35;;;;;;;;;;;;;;;23.43;50.22;99346.22;5092926;28;20389;-77
2023/09/04 03:55:01;;;;;;;;;;;;;;;23.43;50.46;99348.13;5092710;28;19904;-77
2023/09/04 03:57:26;;;;;;;;;;;;;;;23.45;49.95;99337.88;5092912;28;19912;-78
2023/09/04 03:59:52;;;;;;;;;;;;;;;23.45;49.42;99352.16;5092928;28;19912;-76
2023/09/04 04:02:17;;;;;;;;;;;;;;;23.42;50.90;99360.78;5092733;28;19920;-77
2023/09/04 04:04:43;;;;;;;;;;;;;;;23.40;49.40;99354.84;5074562;28;19912;-78
2023/09/04 04:07:08;;;;;;;;;;;;;;;23.32;50.00;99358.06;5092563;28;20003;-78
2023/09/04 04:09:34;;;;;;;;;;;;;;;23.29;49.10;99358.59;5092399;28;20355;-78
2023/09/04 04:11:59;;;;;;;;;;;;;;;23.33;49.82;99356.97;5074364;28;19912;-79
2023/09/04 04:14:24;;;;;;;;;;;;;;;23.36;49.48;99350.25;5092566;28;20002;-78
2023/09/04 04:16:50;;;;;;;;;;;;;;;23.32;50.22;99360.75;5092488;28;19911;-78
2023/09/04 04:19:16;;;;;;;;;;;;;;;23.36;50.96;99366.41;5092419;28;19912;-77
2023/09/04 04:21:41;;;;;;;;;;;;;;;23.38;51.30;99365.06;5092411;28;19916;-77
2023/09/04 04:24:06;;;;;;;;;;;;;;;23.44;48.64;99365.91;5092372;28;20304;-78
2023/09/04 04:26:31;;;;;;;;;;;;;;;23.41;50.21;99366.44;5074099;28;19959;-78
2023/09/04 04:28:57;;;;;;;;;;;;;;;23.43;50.18;99369.66;5092154;28;19919;-78
2023/09/04 04:31:22;;;;;;;;;;;;;;;23.43;50.19;99365.09;5091849;28;19913;-78
2023/09/04 04:33:47;;;;;;;;;;;;;;;23.49;50.14;99367.78;5091987;28;19915;-78
2023/09/04 04:36:13;;;;;;;;;;;;;;;23.49;50.59;99368.59;5091967;28;20409;-79
2023/09/04 04:38:38;;;;;;;;;;;;;;;23.34;51.60;99364.00;5073860;28;19912;-79
2023/09/04 04:41:03;;;;;;;;;;;;;;;23.32;51.87;99363.44;5092135;28;19912;-77
2023/09/04 04:43:28;;;;;;;;;;;;;;;23.22;50.73;99362.63;5092357;28;20452;-77
2023/09/04 04:45:55;;;;;;;;;;;;;;;23.20;51.71;99360.19;5092292;28;20033;-78
2023/09/04 04:48:20;;;;;;;;;;;;;;;23.24;51.46;99361.28;5092222;28;19912;-78
2023/09/04 04:50:45;;;;;;;;;;;;;;;23.18;51.84;99369.59;5074097;28;20002;-77
2023/09/04 04:53:10;;;;;;;;;;;;;;;23.08;51.67;99367.69;5092298;28;19982;-77
2023/09/04 04:55:36;;;;;;;;;;;;;;;23.11;51.54;99376.03;5074120;28;19965;-77
2023/09/04 04:58:01;;;;;;;;;;;;;;;23.03;53.44;99378.41;5073793;28;19918;-77
2023/09/04 05:00:26;;;;;;;;;;;;;;;23.00;51.71;99382.44;5091864;28;19940;-77
2023/09/04 05:02:52;;;;;;;;;;;;;;;22.95;52.50;99390.50;5092042;28;19912;-77
2023/09/04 05:05:17;;;;;;;;;;;;;;;22.83;52.73;99393.41;5092079;28;19922;-77
2023/09/04 05:07:42;;;;;;;;;;;;;;;22.79;53.13;99392.28;5091921;28;19912;-77
2023/09/04 05:10:08;;;;;;;;;;;;;;;22.77;53.51;99393.59;5091943;28;20354;-77
2023/09/04 05:12:34;;;;;;;;;;;;;;;22.72;53.95;99407.84;5092110;28;19911;-77
2023/09/04 05:14:59;;;;;;;;;;;;;;;22.70;54.72;99403.78;5091724;28;19912;-77
2023/09/04 05:17:24;;;;;;;;;;;;;;;22.74;53.23;99404.91;5091864;28;20381;-77
2023/09/04 05:19:50;;;;;;;;;;;;;;;22.68;55.04;99405.94;5092091;28;19912;-78
2023/09/04 05:22:15;;;;;;;;;;;;;;;22.60;53.63;99404.53;5092245;28;19916;-77
2023/09/04 05:24:40;;;;;;;;;;;;;;;22.62;52.42;99404.28;5074544;28;19947;-77
2023/09/04 05:27:06;;;;;;;;;;;;;;;22.64;54.02;99402.97;5099590;28;20381;-78
2023/09/04 05:29:31;;;;;;;;;;;;;;;22.66;53.05;99410.78;5096207;28;19918;-78
2023/09/04 05:31:57;;;;;;;;;;;;;;;22.66;54.28;99413.47;5091813;28;19972;-77
2023/09/04 05:34:22;;;;;;;;;;;;;;;22.72;53.17;99407.03;5091634;28;20385;-78
2023/09/04 05:36:47;;;;;;;;;;;;;;;22.80;52.57;99414.66;5091819;28;20879;-78
2023/09/04 05:39:12;;;;;;;;;;;;;;;22.89;53.14;99421.16;5091665;28;19920;-78
2023/09/04 05:41:38;;;;;;;;;;;;;;;22.96;51.77;99426.31;5091547;28;19995;-78
2023/09/04 05:44:03;;;;;;;;;;;;;;;22.89;53.97;99425.72;5093068;28;19912;-78
2023/09/04 05:46:32;;;;;;;;;;;;;;;22.79;53.10;99429.97;5094847;28;20420;-77
2023/09/04 05:48:57;;;;;;;;;;;;;;;22.71;53.38;99432.34;5095247;28;19951;-78
2023/09/04 05:51:22;;;;;;;;;;;;;;;22.70;52.91;99430.72;5095033;28;19919;-78
2023/09/04 05:53:48;;;;;;;;;;;;;;;22.72;53.79;99436.66;5095054;28;19916;-78
2023/09/04 05:56:14;;;;;;;;;;;;;;;22.71;53.23;99427.75;5095135;28;20362;-78
2023/09/04 05:58:42;;;;;;;;;;;;;;;22.68;54.49;99428.28;5092828;28;20411;-78
2023/09/04 06:01:08;;;;;;;;;;;;;;;22.64;53.13;99423.69;5092433;28;19999;-78
2023/09/04 06:03:33;;;;;;;;;;;;;;;22.61;54.23;99432.28;5092098;28;20007;-78
2023/09/04 06:05:58;;;;;;;;;;;;;;;22.62;52.77;99434.69;5089216;28;20278;-78
2023/09/04 06:08:23;;;;;;;;;;;;;;;22.66;53.52;99437.69;5074386;28;20025;-78
2023/09/04 06:10:49;;;;;;;;;;;;;;;22.71;52.62;99438.53;5086016;28;19912;-78
2023/09/04 06:13:14;;;;;;;;;;;;;;;22.69;52.90;99435.28;5081442;28;20017;-78
2023/09/04 06:15:39;;;;;;;;;;;;;;;22.61;54.73;99434.97;5090360;28;19966;-78
2023/09/04 06:20:49;;;;;;;;;;;;;;;22.56;53.18;99441.13;5074060;28;19919;-77
2023/09/04 06:23:14;;;;;;;;;;;;;;;22.55;54.48;99447.56;5074073;28;19912;-77
2023/09/04 06:25:42;;;;;;;;;;;;;;;22.56;53.97;99464.53;5055953;28;19924;-77
2023/09/04 06:28:08;;;;;;;;;;;;;;;22.58;55.51;99457.00;5074082;28;19912;-77
2023/09/04 06:30:33;;;;;;;;;;;;;;;22.61;54.84;99460.00;5074002;28;19913;-76
2023/09/04 06:32:59;;;;;;;;;;;;;;;22.62;57.37;99448.16;5074099;28;19919;-76
2023/09/04 06:35:24;;;;;;;;;;;;;;;22.56;55.78;99451.06;5073911;28;19913;-76
2023/09/04 06:37:50;;;;;;;;;;;;;;;22.55;55.18;99461.03;5075070;28;20016;-76
2023/09/04 06:40:15;;;;;;;;;;;;;;;22.48;54.97;99471.19;5084548;28;19958;-76
2023/09/04 06:42:40;;;;;;;;;;;;;;;22.38;55.08;99469.25;5081775;28;19916;-76
2023/09/04 06:45:06;;;;;;;;;;;;;;;22.28;56.13;99471.00;5078705;28;19916;-76
2023/09/04 06:47:31;;;;;;;;;;;;;;;22.28;56.12;99468.31;5083344;28;20388;-76
2023/09/04 06:49:56;;;;;;;;;;;;;;;22.27;58.66;99472.88;5089457;28;19920;-77
2023/09/04 06:52:22;;;;;;;;;;;;;;;22.27;57.77;99472.06;5091586;28;19999;-76
2023/09/04 06:54:47;;;;;;;;;;;;;;;22.22;58.02;99482.78;5060881;28;19924;-76
2023/09/04 06:57:12;;;;;;;;;;;;;;;22.14;57.06;99490.25;5073042;28;20007;-75
2023/09/04 06:59:38;;;;;;;;;;;;;;;22.08;56.89;99485.88;5073560;28;20385;-75
2023/09/04 07:02:03;;;;;;;;;;;;;;;21.98;59.46;99484.94;5076786;28;19921;-76
2023/09/04 07:04:29;;;;;;;;;;;;;;;21.82;61.82;99482.09;5086075;28;19974;-77
2023/09/04 07:06:54;;;;;;;;;;;;;;;21.70;59.89;99481.44;5080866;28;19917;-75
2023/09/04 07:09:19;;;;;;;;;;;;;;;21.62;59.38;99489.13;5073134;28;19965;-75
2023/09/04 07:11:44;;;;;;;;;;;;;;;21.49;59.04;99480.38;5091908;28;19920;-76
2023/09/04 07:14:10;;;;;;;;;;;;;;;21.41;63.14;99480.81;5093443;28;19912;-76
2023/09/04 07:16:37;;;;;;;;;;;;;;;21.39;61.13;99479.44;5093296;28;19912;-76
2023/09/04 07:19:02;;;;;;;;;;;;;;;21.35;60.05;99484.50;5091927;28;20373;-76
2023/09/04 07:21:28;;;;;;;;;;;;;;;21.24;61.93;99486.25;5091220;28;19919;-77
2023/09/04 07:23:53;;;;;;;;;;;;;;;21.24;61.75;99490.78;5082945;28;20371;-76
2023/09/04 07:26:18;;;;;;;;;;;;;;;21.27;62.83;99487.63;5077883;28;19928;-77
2023/09/04 07:28:44;;;;;;;;;;;;;;;21.27;61.13;99500.22;5061792;28;19924;-76
2023/09/04 07:31:19;;;;;;;;;;;;;;;21.23;62.31;99502.59;5081419;28;19917;-76
2023/09/04 07:33:48;;;;;;;;;;;;;;;21.21;61.61;99499.31;5084067;28;19919;-75
2023/09/04 07:36:14;;;;;;;;;;;;;;;21.16;63.13;99502.75;5081712;28;19958;-76
2023/09/04 07:38:39;;;;;;;;;;;;;;;21.15;63.92;99501.13;5072667;28;19955;-77
2023/09/04 07:41:05;;;;;;;;;;;;;;;21.12;65.14;99506.19;5072371;28;19913;-75
2023/09/04 07:46:14;;;;;;;;;;;;;;;21.13;63.91;99508.63;5072739;28;19923;-75
2023/09/04 07:48:40;;;;;;;;;;;;;;;21.08;64.68;99505.03;5072691;28;19912;-75
2023/09/04 07:51:06;;;;;;;;;;;;;;;21.12;65.05;99517.72;5072707;28;20305;-76
2023/09/04 07:53:31;;;;;;;;;;;;;;;21.13;63.31;99510.50;5074240;28;20306;-76
2023/09/04 07:55:57;;;;;;;;;;;;;;;21.11;63.13;99515.28;5092673;28;19916;-76
2023/09/04 07:58:22;;;;;;;;;;;;;;;21.02;62.63;99506.84;5092652;28;20365;-76
2023/09/04 08:00:48;;;;;;;;;;;;;;;21.01;62.96;99512.47;5084267;28;20362;-77
2023/09/04 08:03:14;;;;;;;;;;;;;;;20.96;63.95;99509.72;5076932;28;20450;-75
2023/09/04 08:05:39;;;;;;;;;;;;;;;20.97;64.27;99514.00;5073484;28;19916;-76
2023/09/04 08:08:09;;;;;;;;;;;;;;;20.88;64.13;99519.00;5086224;28;19913;-77
2023/09/04 08:10:34;;;;;;;;;;;;;;;20.88;64.24;99514.44;5072253;28;20377;-77
2023/09/04 08:13:00;;;;;;;;;;;;;;;20.90;62.71;99515.00;5072262;28;19919;-77
2023/09/04 08:15:25;;;;;;;;;;;;;;;20.89;63.51;99518.75;5072103;28;19916;-75
2023/09/04 08:17:50;;;;;;;;;;;;;;;20.84;63.27;99521.34;5071987;28;19999;-75
2023/09/04 08:20:15;;;;;;;;;;;;;;;20.92;63.25;99517.44;5076904;28;20308;-77
2023/09/04 08:22:41;;;;;;;;;;;;;;;20.98;63.19;99519.13;5091547;28;19956;-76
2023/09/04 08:25:06;;;;;;;;;;;;;;;20.99;64.96;99519.94;5072900;28;20381;-76
2023/09/04 08:27:31;;;;;;;;;;;;;;;21.03;63.18;99521.09;5092213;28;19919;-77
2023/09/04 08:29:57;;;;;;;;;;;;;;;21.02;63.58;99533.69;5096154;28;19912;-76
2023/09/04 08:32:22;;;;;;;;;;;;;;;21.02;62.85;99519.47;5088060;28;20014;-76
2023/09/04 08:34:47;;;;;;;;;;;;;;;21.04;63.15;99526.22;5085659;28;19946;-76
2023/09/04 08:37:12;;;;;;;;;;;;;;;21.02;63.55;99528.31;5073185;28;19999;-77
2023/09/04 08:39:38;;;;;;;;;;;;;;;21.03;64.83;99521.09;5091950;28;19968;-77
2023/09/04 08:42:07;;;;;;;;;;;;;;;21.03;63.09;99524.59;5091680;28;19904;-75
2023/09/04 08:44:35;;;;;;;;;;;;;;;21.02;62.33;99517.59;5092046;28;19977;-76
2023/09/04 08:47:01;;;;;;;;;;;;;;;21.02;64.18;99522.97;5089271;28;20003;-76
2023/09/04 08:49:27;;;;;;;;;;;;;;;21.10;63.31;99524.41;5090716;28;19962;-77
2023/09/04 08:51:54;;;;;;;;;;;;;;;21.12;62.68;99533.03;5074310;28;19947;-75
2023/09/04 08:54:20;;;;;;;;;;;;;;;21.13;62.65;99531.97;5098751;28;19965;-77
2023/09/04 08:56:45;;;;;;;;;;;;;;;21.09;62.48;99537.00;5093529;28;20347;-78
2023/09/04 08:59:10;;;;;;;;;;;;;;;21.12;63.18;99535.72;5091104;28;19916;-76
2023/09/04 09:01:36;;;;;;;;;;;;;;;21.18;63.03;99537.41;5073504;28;20099;-78
2023/09/04 09:04:02;;;;;;;;;;;;;;;21.20;62.41;99532.59;5089575;28;19916;-76
2023/09/04 09:06:28;;;;;;;;;;;;;;;21.19;62.44;99528.28;5090373;28;20407;-78
2023/09/04 09:08:56;;;;;;;;;;;;;;;21.14;62.13;99526.34;5084794;28;20300;-77
2023/09/04 09:11:22;;;;;;;;;;;;;;;21.12;62.01;99522.28;5071363;28;19912;-76
2023/09/04 09:13:47;;;;;;;;;;;;;;;21.09;61.58;99528.16;5091062;28;19935;-78
2023/09/04 09:16:16;;;;;;;;;;;;;;;21.01;62.90;99515.16;5089246;28;20007;-77
2023/09/04 09:18:42;;;;;;;;;;;;;;;21.01;61.68;99515.97;5076418;28;20296;-76
2023/09/04 09:21:21;;;;;;;;;;;;;;;21.02;62.82;99509.53;5093811;28;19927;-77
2023/09/04 09:23:46;;;;;;;;;;;;;;;21.05;60.93;99511.72;5093206;28;19919;-76
2023/09/04 09:26:11;;;;;;;;;;;;;;;20.95;64.21;99503.53;5095764;28;19917;-77
2023/09/04 09:28:37;;;;;;;;;;;;;;;20.96;63.57;99502.47;5093286;28;19916;-77
2023/09/04 09:31:02;;;;;;;;;;;;;;;21.02;64.18;99495.31;5082827;28;20408;-76
2023/09/04 09:33:28;;;;;;;;;;;;;;;21.05;63.70;99494.81;5091572;28;19916;-77
2023/09/04 09:35:54;;;;;;;;;;;;;;;21.09;63.27;99491.38;5085950;28;19923;-76
2023/09/04 09:38:20;;;;;;;;;;;;;;;21.04;63.11;99498.56;5075247;28;19917;-76
2023/09/04 09:40:46;;;;;;;;;;;;;;;20.99;64.10;99499.28;5076185;28;19913;-77
2023/09/04 09:43:11;;;;;;;;;;;;;;;21.01;63.83;99494.47;5075467;28;20336;-76
2023/09/04 09:45:36;;;;;;;;;;;;;;;20.98;63.27;99496.84;5093271;28;20370;-78
2023/09/04 09:48:05;;;;;;;;;;;;;;;21.00;64.03;99492.88;5095228;28;20390;-75
2023/09/04 09:50:31;;;;;;;;;;;;;;;21.05;63.08;99484.88;5081537;28;20424;-75
2023/09/04 09:53:00;;;;;;;;;;;;;;;21.23;62.00;99481.13;5074794;28;19912;-75
2023/09/04 09:55:26;;;;;;;;;;;;;;;21.50;65.07;99482.00;5073405;28;19917;-77
2023/09/04 09:57:52;;;;;;;;;;;;;;;21.65;63.47;99481.38;5077736;28;19916;-76
2023/09/04 10:00:18;;;;;;;;;;;;;;;21.66;62.64;99479.50;5074595;28;19932;-76
2023/09/04 10:02:43;;;;;;;;;;;;;;;21.67;63.40;99486.50;5074374;28;20385;-75
2023/09/04 10:05:09;;;;;;;;;;;;;;;21.66;63.07;99479.50;5084706;28;19920;-77
2023/09/04 10:07:36;;;;;;;;;;;;;;;21.63;62.60;99480.00;5089373;28;19978;-77
2023/09/04 10:10:03;;;;;;;;;;;;;;;21.56;64.92;99491.75;5093989;28;19939;-76
2023/09/04 10:12:36;;;;;;;;;;;;;;;21.54;63.24;99493.03;5091865;28;19919;-75
2023/09/04 10:15:03;;;;;;;;;;;;;;;21.53;63.05;99494.91;5094698;28;19912;-77
2023/09/04 10:17:42;;;;;;;;;;;;;;;21.48;64.27;99502.09;5094593;28;20352;-76
2023/09/04 10:20:08;;;;;;;;;;;;;;;21.46;64.14;99509.59;5092880;28;19916;-77
2023/09/04 10:22:36;;;;;;;;;;;;;;;21.42;64.13;99511.16;5094477;28;20003;-76
2023/09/04 10:25:10;;;;;;;;;;;;;;;21.37;63.02;99503.84;5094581;28;19935;-76
2023/09/04 10:27:40;;;;;;;;;;;;;;;21.36;64.31;99507.59;5073806;28;20379;-76
2023/09/04 10:30:06;;;;;;;;;;;;;;;21.39;63.15;99508.97;5081243;28;20381;-76
2023/09/04 10:32:32;;;;;;;;;;;;;;;21.39;64.11;99515.16;5083969;28;19917;-76
2023/09/04 10:37:42;;;;;;;;;;;;;;;21.29;63.60;99504.28;5088619;28;19919;-76
2023/09/04 10:40:11;;;;;;;;;;;;;;;21.28;64.14;99505.34;5084308;28;19959;-77
2023/09/04 10:42:37;;;;;;;;;;;;;;;21.30;62.67;99497.03;5094339;28;19912;-78
2023/09/04 10:45:12;;;;;;;;;;;;;;;21.40;62.22;99484.56;5091111;28;20423;-76
2023/09/04 10:47:46;;;;;;;;;;;;;;;21.68;62.69;99482.75;5086585;28;19996;-77
2023/09/04 10:50:32;;;;;;;;;;;;;;;21.74;61.66;99479.06;5074544;28;19923;-76
2023/09/04 10:52:58;;;;;;;;;;;;;;;21.93;61.33;99488.41;5093785;28;19912;-76
2023/09/04 10:55:26;;;;;;;;;;;;;;;22.00;61.11;99494.38;5085102;28;20425;-76
2023/09/04 10:57:58;;;;;;;;;;;;;;;21.94;61.05;99481.97;5058742;28;20380;-74
2023/09/04 11:00:37;;;;;;;;;;;;;;;22.13;60.84;99495.88;5090073;28;19919;-76
2023/09/04 11:03:14;;;;;;;;;;;;;;;22.38;60.11;99487.25;5037356;28;19928;-76
2023/09/04 11:05:58;;;;;;;;;;;;;;;22.49;61.08;99489.78;5039440;28;19948;-76
2023/09/04 11:08:27;;;;;;;;;;;;;;;22.63;60.08;99484.75;5044809;28;20299;-76
2023/09/04 11:10:59;;;;;;;;;;;;;;;22.85;59.53;99481.16;5049319;28;20015;-75
2023/09/04 11:13:25;;;;;;;;;;;;;;;22.99;58.15;99476.94;5051970;28;19920;-75
2023/09/04 11:15:57;;;;;;;;;;;;;;;23.17;57.88;99471.16;5040684;28;19913;-78
2023/09/04 11:18:28;;;;;;;;;;;;;;;23.18;57.40;99464.69;5051716;28;20386;-78
2023/09/04 11:20:54;;;;;;;;;;;;;;;23.08;58.23;99460.06;5049968;28;19935;-78
2023/09/04 11:23:19;;;;;;;;;;;;;;;23.01;58.25;99455.94;5047972;28;20397;-78
2023/09/04 11:25:46;;;;;;;;;;;;;;;22.97;58.53;99452.16;5047339;28;20023;-78
2023/09/04 11:30:59;;;;;;;;;;;;;;;23.19;57.70;99460.09;5050818;28;19921;-78
2023/09/04 11:33:29;;;;;;;;;;;;;;;23.27;57.76;99446.94;5050951;28;19924;-78
2023/09/04 11:36:02;;;;;;;;;;;;;;;23.41;57.80;99456.16;5047956;28;19928;-78
2023/09/04 11:38:31;;;;;;;;;;;;;;;23.54;56.89;99451.34;5050754;28;19913;-78
2023/09/04 11:40:56;;;;;;;;;;;;;;;23.66;56.87;99457.34;5049817;28;19916;-77
2023/09/04 11:43:26;;;;;;;;;;;;;;;23.99;55.54;99448.00;5052864;28;19920;-78
2023/09/04 11:45:55;;;;;;;;;;;;;;;24.20;54.95;99444.22;5048160;28;19917;-77
2023/09/04 11:48:24;;;;;;;;;;;;;;;24.11;55.16;99453.13;5049866;28;19916;-77
2023/09/04 11:50:50;;;;;;;;;;;;;;;23.84;55.44;99456.88;5046764;28;19913;-76
2023/09/04 11:53:16;;;;;;;;;;;;;;;23.58;56.38;99458.66;5046814;28;20291;-76
2023/09/04 11:55:41;;;;;;;;;;;;;;;23.41;56.74;99449.97;5050893;28;19916;-77
2023/09/04 11:58:06;;;;;;;;;;;;;;;23.29;57.02;99449.38;5048603;28;19917;-77
2023/09/04 12:00:32;;;;;;;;;;;;;;;23.25;57.93;99448.28;5051638;28;20377;-77
2023/09/04 12:03:06;;;;;;;;;;;;;;;23.19;57.40;99444.75;5150429;27;19962;-77
2023/09/04 12:05:32;;;;;;;;;;;;;;;23.19;57.67;99442.06;5150536;27;19958;-77
2023/09/04 12:07:58;;;;;;;;;;;;;;;23.19;57.70;99438.56;5147808;27;19916;-79
2023/09/04 12:10:23;;;;;;;;;;;;;;;23.62;57.24;99430.09;5131914;27;19915;-78
2023/09/04 12:12:51;;;;;;;;;;;;;;;23.90;56.50;99438.81;5150406;27;20345;-77
2023/09/04 12:15:26;;;;;;;;;;;;;;;23.80;56.04;99433.41;5150420;27;19915;-76
2023/09/04 12:17:51;;;;;;;;;;;;;;;23.56;57.08;99424.97;5126940;28;19912;-76
2023/09/04 12:20:17;;;;;;;;;;;;;;;23.43;57.40;99423.56;5129298;28;20453;-78
2023/09/04 12:22:52;;;;;;;;;;;;;;;23.23;56.97;99428.88;5129248;28;19923;-78
2023/09/04 12:25:18;;;;;;;;;;;;;;;22.98;57.77;99416.09;5137419;27;19911;-77
2023/09/04 12:27:43;;;;;;;;;;;;;;;22.83;58.38;99414.94;5150128;27;20406;-76
2023/09/04 12:30:10;;;;;;;;;;;;;;;22.78;58.56;99414.88;5149955;27;19911;-78
2023/09/04 12:32:37;;;;;;;;;;;;;;;22.77;58.41;99407.88;5141452;27;19911;-77
2023/09/04 12:35:09;;;;;;;;;;;;;;;22.85;58.29;99406.59;5128199;27;20395;-77
2023/09/04 12:37:35;;;;;;;;;;;;;;;22.93;57.54;99408.78;5132098;27;19911;-78
2023/09/04 12:40:00;;;;;;;;;;;;;;;22.87;58.42;99409.84;5110521;28;19908;-77
2023/09/04 12:42:25;;;;;;;;;;;;;;;22.93;57.55;99421.44;5128913;28;19916;-78
2023/09/04 12:44:51;;;;;;;;;;;;;;;22.89;57.70;99404.19;5139564;27;20316;-78
2023/09/04 12:47:16;;;;;;;;;;;;;;;22.91;57.41;99397.47;5149767;27;20003;-78
2023/09/04 12:49:41;;;;;;;;;;;;;;;22.79;57.91;99400.34;5149779;27;20376;-78
2023/09/04 12:52:07;;;;;;;;;;;;;;;22.77;58.33;99391.72;5136655;27;19988;-78
2023/09/04 12:54:32;;;;;;;;;;;;;;;22.75;57.52;99398.44;5130630;27;20383;-77